createdAt,value
2023-04-16T00:00:35.102Z,106.40
2023-04-16T00:03:05.444Z,94.10
2023-04-16T00:05:35.840Z,102.10
2023-04-16T00:08:06.153Z,90.90
2023-04-16T00:10:37.959Z,88.25
2023-04-16T00:13:08.201Z,86.57
2023-04-16T00:15:39.377Z,82.28
2023-04-16T00:20:39.433Z,85.35
2023-04-16T00:23:09.869Z,83.63
2023-04-16T00:25:40.137Z,82.75
2023-04-16T00:28:11.160Z,70.78
2023-04-16T00:30:41.668Z,77.47
2023-04-16T00:33:12.042Z,68.27
2023-04-16T00:35:42.591Z,82.47
2023-04-16T00:38:12.702Z,73.93
2023-04-16T00:40:43.064Z,82.63
2023-04-16T00:43:13.484Z,87.27
2023-04-16T00:45:43.746Z,71.03
2023-04-16T00:48:14.093Z,72.25
2023-04-16T00:50:44.582Z,73.57
2023-04-16T00:53:14.736Z,73.05
2023-04-16T00:55:45.170Z,65.35
2023-04-16T00:58:15.625Z,65.17
2023-04-16T01:00:45.908Z,59.00
2023-04-16T01:03:16.578Z,59.17
2023-04-16T01:05:48.497Z,59.47
2023-04-16T01:08:23.852Z,75.78
2023-04-16T01:10:54.078Z,67.70
2023-04-16T01:13:24.398Z,62.38
2023-04-16T01:15:55.195Z,52.65
2023-04-16T01:18:26.417Z,60.53
2023-04-16T01:23:26.650Z,60.65
2023-04-16T01:25:57.014Z,70.43
2023-04-16T01:28:27.323Z,62.30
2023-04-16T01:30:57.712Z,64.68
2023-04-16T01:33:57.912Z,58.78
2023-04-16T01:36:29.285Z,76.20
2023-04-16T01:39:00.090Z,65.65
2023-04-16T01:41:30.347Z,71.53
2023-04-16T01:44:00.616Z,74.10
2023-04-16T01:46:32.430Z,60.60
2023-04-16T01:49:03.149Z,64.28
2023-04-16T01:51:34.493Z,61.85
2023-04-16T01:56:35.830Z,60.33
2023-04-16T01:59:06.214Z,56.53
2023-04-16T02:01:41.928Z,59.17
2023-04-16T02:04:14.635Z,72.90
2023-04-16T02:06:45.486Z,70.03
2023-04-16T02:09:17.125Z,67.60
2023-04-16T02:11:47.557Z,67.13
2023-04-16T02:14:18.159Z,73.30
2023-04-16T02:16:49.113Z,67.00
2023-04-16T02:19:42.299Z,62.28
2023-04-16T02:22:13.425Z,67.38
2023-04-16T02:24:43.967Z,64.30
2023-04-16T02:27:14.629Z,76.18
2023-04-16T02:29:46.154Z,91.03
2023-04-16T02:32:20.746Z,82.90
2023-04-16T02:37:21.040Z,86.45
2023-04-16T02:39:52.387Z,78.37
2023-04-16T02:42:23.307Z,69.70
2023-04-16T02:44:53.936Z,80.38
2023-04-16T02:47:24.216Z,75.30
2023-04-16T02:49:54.608Z,88.60
2023-04-16T02:52:24.873Z,77.15
2023-04-16T02:54:55.338Z,73.77
2023-04-16T02:57:25.732Z,75.55
2023-04-16T02:59:56.208Z,89.67
2023-04-16T03:02:26.761Z,73.93
2023-04-16T03:04:57.325Z,81.67
2023-04-16T03:07:28.339Z,78.50
2023-04-16T03:09:58.709Z,80.53
2023-04-16T03:12:29.141Z,81.65
2023-04-16T03:14:59.528Z,90.77
2023-04-16T03:17:29.933Z,88.43
2023-04-16T03:20:00.400Z,85.27
2023-04-16T03:22:30.797Z,83.10
2023-04-16T03:25:01.136Z,83.73
2023-04-16T03:27:31.469Z,82.87
2023-04-16T03:30:02.300Z,79.33
2023-04-16T03:32:34.136Z,71.18
2023-04-16T03:35:10.081Z,75.90
2023-04-16T03:37:40.709Z,70.63
2023-04-16T03:40:11.768Z,76.65
2023-04-16T03:42:42.021Z,76.80
2023-04-16T03:45:12.784Z,67.53
2023-04-16T03:50:14.126Z,131.95
2023-04-16T03:52:44.743Z,84.22
2023-04-16T03:55:16.357Z,81.60
2023-04-16T03:57:46.638Z,77.93
2023-04-16T04:00:19.265Z,81.97
2023-04-16T04:03:06.371Z,88.75
2023-04-16T04:05:43.030Z,90.10
2023-04-16T04:08:16.285Z,86.07
2023-04-16T04:10:48.241Z,82.87
2023-04-16T04:13:19.338Z,85.93
2023-04-16T04:15:49.691Z,79.30
2023-04-16T04:18:20.513Z,100.68
2023-04-16T04:20:50.862Z,87.47
2023-04-16T04:23:23.650Z,85.50
2023-04-16T04:25:54.000Z,94.47
2023-04-16T04:28:24.534Z,89.37
2023-04-16T04:30:54.844Z,85.77
2023-04-16T04:33:25.266Z,90.10
2023-04-16T04:35:56.220Z,91.45
2023-04-16T04:38:27.874Z,108.40
2023-04-16T04:40:58.456Z,96.13
2023-04-16T04:43:31.089Z,94.10
2023-04-16T04:46:01.386Z,98.50
2023-04-16T04:48:33.149Z,120.35
2023-04-16T04:51:05.172Z,120.10
2023-04-16T04:53:35.986Z,127.68
2023-04-16T04:56:12.254Z,94.28
2023-04-16T04:58:45.167Z,109.15
2023-04-16T05:01:15.520Z,128.35
2023-04-16T05:03:45.874Z,99.05
2023-04-16T05:06:16.330Z,125.18
2023-04-16T05:08:46.583Z,84.13
2023-04-16T05:11:16.920Z,123.17
2023-04-16T05:13:47.234Z,145.15
2023-04-16T05:16:17.749Z,198.82
2023-04-16T05:18:48.072Z,458.17
2023-04-16T05:21:18.943Z,172.38
2023-04-16T05:26:19.426Z,213.90
2023-04-16T05:28:50.385Z,95.43
2023-04-16T05:31:20.919Z,105.32
2023-04-16T05:33:51.396Z,113.70
2023-04-16T05:36:22.353Z,110.37
2023-04-16T05:38:52.780Z,132.75
2023-04-16T05:41:23.586Z,436.05
2023-04-16T05:43:53.994Z,358.20
2023-04-16T05:46:24.469Z,383.37
2023-04-16T05:48:57.922Z,327.93
2023-04-16T05:51:29.971Z,101.82
2023-04-16T05:54:00.453Z,115.78
2023-04-16T05:56:31.273Z,123.15
2023-04-16T05:59:01.573Z,202.45
2023-04-16T06:01:32.815Z,193.75
2023-04-16T15:20:13.212Z,60.58
2023-04-16T15:22:43.609Z,58.45
2023-04-16T15:25:14.057Z,59.27
2023-04-16T15:27:44.295Z,60.70
2023-04-16T15:30:15.515Z,60.17
2023-04-16T15:35:17.241Z,59.58
2023-04-16T15:37:47.715Z,58.92
2023-04-16T15:40:21.042Z,59.13
2023-04-16T15:42:51.453Z,59.25
2023-04-16T15:45:21.723Z,58.17
2023-04-16T15:47:53.737Z,58.50
2023-04-16T15:50:24.305Z,58.70
2023-04-16T15:52:56.580Z,57.87
2023-04-16T15:55:34.713Z,56.38
2023-04-16T15:58:05.593Z,56.55
2023-04-16T16:00:40.588Z,58.38
2023-04-16T16:03:11.941Z,58.78
2023-04-16T16:05:42.897Z,55.83
2023-04-16T16:08:14.284Z,56.30
2023-04-16T16:10:45.077Z,58.45
2023-04-16T16:13:15.534Z,58.60
2023-04-16T16:15:46.152Z,56.23
2023-04-16T16:18:16.528Z,56.53
2023-04-16T16:20:47.217Z,58.72
2023-04-16T16:23:17.504Z,58.67
2023-04-16T16:25:47.909Z,59.33
2023-04-16T16:28:18.133Z,57.58
2023-04-16T16:30:49.407Z,57.85
2023-04-16T16:35:50.002Z,59.25
2023-04-16T16:38:20.477Z,58.60
2023-04-16T16:40:50.880Z,58.00
2023-04-16T16:43:21.084Z,59.50
2023-04-16T16:45:51.481Z,58.10
2023-04-16T16:48:21.800Z,57.80
2023-04-16T16:50:52.042Z,57.10
2023-04-16T16:53:22.369Z,57.83
2023-04-16T16:55:52.544Z,58.33
2023-04-16T16:58:23.234Z,59.22
2023-04-16T17:00:53.585Z,62.33
2023-04-16T17:03:23.896Z,65.78
2023-04-16T17:05:54.277Z,61.70
2023-04-16T17:08:24.475Z,60.13
2023-04-16T17:10:54.764Z,61.37
2023-04-16T17:13:26.743Z,60.63
2023-04-16T17:15:57.087Z,56.55
2023-04-16T17:18:27.523Z,58.42
2023-04-16T17:20:58.027Z,57.67
2023-04-16T17:23:28.397Z,62.30
2023-04-16T17:25:58.887Z,60.33
2023-04-16T17:28:29.501Z,58.53
2023-04-16T17:30:59.908Z,59.37
2023-04-16T17:33:30.152Z,61.30
2023-04-16T17:36:00.463Z,61.92
2023-04-16T17:38:30.728Z,60.00
2023-04-16T17:41:00.999Z,61.47
2023-04-16T17:43:31.249Z,60.55
2023-04-16T17:46:01.466Z,59.63
2023-04-16T17:48:31.790Z,62.37
2023-04-16T17:51:02.081Z,63.42
2023-04-16T17:53:32.336Z,61.05
2023-04-16T17:56:02.566Z,60.80
2023-04-16T17:58:35.427Z,60.03
2023-04-16T18:01:06.512Z,61.80
2023-04-16T18:06:07.241Z,60.38
2023-04-16T18:08:39.326Z,61.00
2023-04-16T18:11:10.838Z,60.75
2023-04-16T18:13:41.228Z,59.53
2023-04-16T18:16:17.499Z,62.53
2023-04-16T18:18:48.712Z,60.38
2023-04-16T18:21:20.837Z,62.30
2023-04-16T18:23:51.340Z,60.13
2023-04-16T18:26:22.892Z,61.10
2023-04-16T18:28:53.449Z,59.75
2023-04-16T18:31:24.345Z,62.65
2023-04-16T18:33:58.010Z,61.90
2023-04-16T18:36:29.671Z,59.97
2023-04-16T18:39:02.414Z,62.17
2023-04-16T18:41:33.753Z,61.00
2023-04-16T18:44:04.069Z,60.38
2023-04-16T18:46:34.135Z,61.40
2023-04-16T18:49:04.533Z,61.15
2023-04-16T18:51:34.830Z,62.97
2023-04-16T18:54:05.186Z,58.72
2023-04-16T18:56:35.378Z,61.05
2023-04-16T18:59:05.780Z,62.70
2023-04-16T19:01:36.040Z,63.10
2023-04-16T19:04:06.436Z,61.35
2023-04-16T19:06:36.924Z,62.87
2023-04-16T19:09:08.791Z,63.07
2023-04-16T19:11:40.442Z,62.40
2023-04-16T19:14:10.894Z,64.72
2023-04-16T19:16:41.891Z,61.90
2023-04-16T19:19:12.401Z,62.75
2023-04-16T19:21:43.078Z,63.10
2023-04-16T19:24:13.558Z,62.80
2023-04-16T19:26:43.897Z,64.40
2023-04-16T19:29:14.112Z,63.38
2023-04-16T19:31:44.617Z,64.57
2023-04-16T19:34:15.251Z,63.27
2023-04-16T19:36:46.839Z,63.93
2023-04-16T19:39:17.157Z,64.13
2023-04-16T19:41:47.420Z,64.45
2023-04-16T19:44:17.816Z,67.53
2023-04-16T19:46:48.179Z,67.05
2023-04-16T19:49:18.545Z,64.70
2023-04-16T19:51:48.867Z,66.47
2023-04-16T19:54:19.985Z,65.80
2023-04-16T20:01:51.913Z,66.50
2023-04-16T20:04:22.188Z,65.97
2023-04-16T20:06:52.870Z,67.33
2023-04-16T20:09:23.158Z,66.07
2023-04-16T20:11:54.027Z,65.13
2023-04-16T20:14:24.311Z,65.13
2023-04-16T20:16:55.175Z,65.85
2023-04-16T20:19:33.777Z,65.07
2023-04-16T20:22:04.104Z,66.57
2023-04-16T20:24:34.717Z,66.60
2023-04-16T20:27:05.083Z,66.47
2023-04-16T20:29:35.314Z,65.97
2023-04-16T20:32:05.638Z,68.43
2023-04-16T20:34:36.228Z,69.22
2023-04-16T20:37:07.203Z,68.75
2023-04-16T20:39:38.615Z,68.47
2023-04-16T20:42:12.724Z,65.40
2023-04-16T20:44:42.990Z,68.40
2023-04-16T20:47:15.553Z,66.43
2023-04-16T20:49:48.998Z,66.95
2023-04-16T20:52:19.363Z,67.60
2023-04-16T20:54:50.225Z,70.75
2023-04-16T20:57:20.838Z,69.07
2023-04-16T20:59:52.240Z,65.17
2023-04-16T21:02:23.211Z,70.10
2023-04-16T21:04:53.765Z,67.95
2023-04-16T21:07:24.268Z,68.20
2023-04-16T21:09:54.640Z,65.63
2023-04-16T21:12:24.896Z,70.70
2023-04-16T21:14:55.318Z,68.60
2023-04-16T21:17:25.571Z,71.55
2023-04-16T21:19:55.723Z,68.60
2023-04-16T21:22:26.031Z,66.90
2023-04-16T21:24:56.339Z,69.00
2023-04-16T21:27:26.617Z,69.78
2023-04-16T21:29:57.056Z,68.43
2023-04-16T21:32:27.445Z,70.43
2023-04-16T21:34:58.279Z,70.33
2023-04-16T21:37:28.515Z,70.15
2023-04-16T21:39:58.801Z,70.88
2023-04-16T21:42:29.212Z,69.20
2023-04-16T21:44:59.641Z,70.70
2023-04-16T21:47:29.887Z,73.28
2023-04-16T21:50:00.238Z,70.07
2023-04-16T21:52:30.608Z,71.50
2023-04-16T21:55:01.688Z,71.57
2023-04-16T21:57:31.951Z,73.10
2023-04-16T22:00:02.380Z,71.45
2023-04-16T22:02:34.302Z,68.63
2023-04-16T22:05:04.872Z,68.83
2023-04-16T22:07:34.939Z,71.03
2023-04-16T22:10:06.473Z,70.97
2023-04-16T22:12:40.116Z,72.10
2023-04-16T22:15:11.485Z,71.05
2023-04-16T22:20:15.672Z,73.68
2023-04-16T22:22:46.815Z,72.25
2023-04-16T22:25:17.143Z,81.50
2023-04-16T22:27:47.644Z,75.83
2023-04-16T22:30:18.248Z,70.13
2023-04-16T22:32:48.534Z,77.17
2023-04-16T22:35:19.553Z,73.47
2023-04-16T22:37:49.864Z,73.65
2023-04-16T22:40:20.693Z,73.30
2023-04-16T22:42:51.028Z,73.80
2023-04-16T22:45:21.454Z,74.90
2023-04-16T22:49:46.155Z,90.60
2023-04-16T22:52:16.419Z,85.35
2023-04-16T22:54:46.719Z,98.60
2023-04-16T22:57:17.050Z,120.53
2023-04-16T22:59:47.474Z,275.05
2023-04-16T23:04:25.106Z,84.57
2023-04-16T23:06:55.851Z,77.15
2023-04-16T23:09:26.314Z,79.43
2023-04-16T23:11:56.605Z,81.93
2023-04-16T23:14:28.877Z,78.45
2023-04-16T23:16:59.129Z,78.25
2023-04-16T23:19:29.430Z,77.88
2023-04-16T23:21:59.661Z,79.10
2023-04-16T23:24:29.907Z,85.93
2023-04-16T23:27:00.440Z,75.68
2023-04-16T23:29:30.532Z,76.20
2023-04-16T23:32:00.816Z,84.18
2023-04-16T23:34:30.917Z,77.50
2023-04-16T23:37:01.238Z,75.85
2023-04-16T23:39:31.695Z,78.82
2023-04-16T23:42:02.746Z,87.67
2023-04-16T23:44:33.039Z,82.68
2023-04-16T23:47:03.498Z,85.93
2023-04-16T23:49:33.808Z,77.70
2023-04-16T23:52:04.688Z,82.97
2023-04-16T23:54:35.040Z,80.65
2023-04-16T23:57:05.428Z,83.88
2023-04-16T23:59:35.678Z,80.97
